Time;durP1;ratioP1;P1;durP2;ratioP2;P2;SDS_P1;SDS_P2;PMS_P1;PMS_P2;Temp;Humidity;BMP_temperature;BMP_pressure;BME280_temperature;BME280_humidity;BME280_pressure;Samples;Min_cycle;Max_cycle;Signal;HPM_P1;HPM_P2
2022/09/13 00:02:05;;;;;;;3.97;3.05;;;16.80;99.90;;;;;;7364492;32;20236;-59
2022/09/13 00:06:13;;;;;;;4.75;3.10;;;16.70;99.90;;;;;;7356505;32;20134;-59
2022/09/13 00:10:15;;;;;;;6.35;2.97;;;16.80;99.90;;;;;;7369258;32;20145;-59
2022/09/13 00:14:17;;;;;;;5.65;3.42;;;16.70;99.90;;;;;;7364850;32;20225;-58
2022/09/13 00:18:19;;;;;;;4.85;3.42;;;16.70;99.90;;;;;;7369157;32;20194;-58
2022/09/13 00:22:20;;;;;;;11.27;3.62;;;16.70;99.90;;;;;;7365829;32;20107;-59
2022/09/13 00:26:32;;;;;;;6.32;3.37;;;16.70;99.90;;;;;;7365700;32;20099;-59
2022/09/13 00:30:34;;;;;;;4.70;2.80;;;16.70;99.90;;;;;;7356346;32;20114;-58
2022/09/13 00:34:36;;;;;;;3.47;2.80;;;16.70;99.90;;;;;;7366242;32;20099;-59
2022/09/13 00:38:38;;;;;;;6.75;3.20;;;16.80;99.90;;;;;;7360387;32;20121;-58
2022/09/13 00:42:40;;;;;;;3.62;3.00;;;16.80;99.90;;;;;;7372678;32;20587;-58
2022/09/13 00:46:47;;;;;;;5.07;2.90;;;16.80;99.90;;;;;;7364534;32;20126;-58
2022/09/13 00:50:53;;;;;;;5.05;2.85;;;16.80;99.90;;;;;;7362566;32;20257;-58
2022/09/13 00:55:03;;;;;;;6.77;3.50;;;16.80;99.90;;;;;;7359444;32;20446;-58
2022/09/13 00:59:11;;;;;;;3.10;2.80;;;16.90;99.90;;;;;;7359648;32;20184;-58
2022/09/13 01:03:16;;;;;;;3.37;3.00;;;16.90;99.90;;;;;;7366558;32;20125;-58
2022/09/13 01:07:18;;;;;;;5.05;3.20;;;16.90;99.90;;;;;;7360445;32;20518;-58
2022/09/13 01:11:28;;;;;;;5.95;3.12;;;16.80;99.90;;;;;;7366740;32;20134;-60
2022/09/13 01:15:30;;;;;;;4.12;2.87;;;16.80;99.90;;;;;;7365495;32;20102;-58
2022/09/13 01:19:31;;;;;;;6.07;3.30;;;16.80;99.90;;;;;;7365515;32;20575;-58
2022/09/13 01:24:08;;;;;;;5.50;3.08;;;16.60;99.90;;;;;;7358335;32;20247;-58
2022/09/13 01:28:36;;;;;;;3.62;2.85;;;16.50;99.90;;;;;;7357497;32;20703;-58
2022/09/13 01:32:56;;;;;;;3.90;2.97;;;16.50;99.90;;;;;;7360426;32;20119;-59
2022/09/13 01:37:07;;;;;;;4.53;3.12;;;16.60;99.90;;;;;;7359651;32;20180;-59
2022/09/13 01:41:46;;;;;;;7.60;3.37;;;16.60;99.90;;;;;;7373464;32;20178;-58
2022/09/13 01:45:54;;;;;;;2.97;2.53;;;16.60;99.90;;;;;;7371272;32;20163;-58
2022/09/13 01:50:18;;;;;;;3.33;2.85;;;16.60;99.90;;;;;;7371869;32;20107;-59
2022/09/13 01:54:58;;;;;;;3.15;2.85;;;16.60;99.90;;;;;;7371258;32;20262;-59
2022/09/13 01:59:19;;;;;;;4.18;3.08;;;16.60;99.90;;;;;;7370313;32;20477;-59
2022/09/13 02:03:33;;;;;;;4.68;3.22;;;16.60;99.90;;;;;;7373535;32;20190;-59
2022/09/13 02:07:40;;;;;;;3.58;2.83;;;16.60;99.90;;;;;;7366838;32;20157;-59
2022/09/13 02:11:46;;;;;;;5.87;3.20;;;16.60;99.90;;;;;;7369216;32;20099;-59
2022/09/13 02:15:54;;;;;;;4.90;3.15;;;16.60;99.90;;;;;;7364094;32;20163;-59
2022/09/13 02:20:01;;;;;;;3.95;3.30;;;16.60;99.90;;;;;;7368513;32;20178;-58
2022/09/13 02:24:07;;;;;;;4.57;3.10;;;16.60;99.90;;;;;;7364163;32;20103;-58
2022/09/13 02:28:13;;;;;;;6.05;3.10;;;16.60;99.90;;;;;;7367690;32;20194;-59
2022/09/13 02:32:24;;;;;;;6.12;3.20;;;16.60;99.90;;;;;;7365379;32;20261;-59
2022/09/13 02:36:33;;;;;;;4.85;3.10;;;16.50;99.90;;;;;;7364407;32;20098;-59
2022/09/13 02:40:45;;;;;;;3.17;2.70;;;16.50;99.90;;;;;;7366367;32;20198;-58
2022/09/13 02:45:00;;;;;;;4.15;3.53;;;16.60;99.90;;;;;;7364352;32;20099;-58
2022/09/13 02:49:09;;;;;;;4.65;3.15;;;16.60;99.90;;;;;;7366221;32;20111;-58
2022/09/13 02:53:24;;;;;;;4.28;3.30;;;16.60;99.90;;;;;;7370186;32;20129;-58
2022/09/13 02:57:45;;;;;;;4.07;2.78;;;16.60;99.90;;;;;;7366804;32;20219;-58
2022/09/13 03:02:02;;;;;;;5.03;3.17;;;16.60;99.90;;;;;;7374940;32;20110;-58
2022/09/13 03:06:04;;;;;;;4.62;2.83;;;16.60;99.90;;;;;;7362348;32;20201;-58
2022/09/13 03:10:10;;;;;;;2.87;2.53;;;16.60;99.90;;;;;;7372734;32;20124;-59
2022/09/13 03:14:26;;;;;;;3.75;3.10;;;16.70;99.90;;;;;;7366834;32;20156;-59
2022/09/13 03:18:34;;;;;;;7.07;3.12;;;16.70;99.90;;;;;;7370827;32;20107;-58
2022/09/13 03:22:54;;;;;;;5.00;3.12;;;16.60;99.90;;;;;;7363247;32;20483;-58
2022/09/13 03:26:56;;;;;;;4.30;3.40;;;16.60;99.90;;;;;;7362239;32;20121;-59
2022/09/13 03:31:15;;;;;;;5.18;3.80;;;16.70;99.90;;;;;;7367985;32;20125;-58
2022/09/13 03:35:40;;;;;;;6.50;3.75;;;16.60;99.90;;;;;;7369865;32;20201;-59
2022/09/13 03:40:10;;;;;;;5.95;4.43;;;16.60;99.90;;;;;;7361080;32;20125;-58
2022/09/13 03:44:14;;;;;;;7.07;4.05;;;16.50;99.90;;;;;;7366533;32;20171;-59
2022/09/13 03:48:17;;;;;;;8.52;4.43;;;16.40;99.90;;;;;;7361021;32;20130;-58
2022/09/13 03:52:19;;;;;;;6.80;3.90;;;16.30;99.90;;;;;;7363298;32;20252;-59
2022/09/13 03:56:21;;;;;;;6.55;4.30;;;16.20;99.90;;;;;;7363037;32;20103;-59
2022/09/13 04:00:23;;;;;;;5.90;4.22;;;16.20;99.90;;;;;;7361293;32;20201;-59
2022/09/13 04:04:25;;;;;;;7.72;4.30;;;16.10;99.90;;;;;;7362217;32;20229;-59
2022/09/13 04:08:27;;;;;;;5.57;4.15;;;16.10;99.90;;;;;;7364812;32;20144;-59
2022/09/13 04:12:30;;;;;;;4.78;4.12;;;16.10;99.90;;;;;;7360291;32;20209;-59
2022/09/13 04:16:31;;;;;;;5.35;4.12;;;16.10;99.90;;;;;;7367382;32;20111;-58
2022/09/13 04:20:34;;;;;;;8.18;4.18;;;16.10;99.90;;;;;;7361768;32;20221;-59
2022/09/13 04:24:37;;;;;;;8.20;4.55;;;16.00;99.90;;;;;;7368375;32;20133;-58
2022/09/13 04:28:39;;;;;;;9.60;4.20;;;15.90;99.90;;;;;;7362308;32;20183;-58
2022/09/13 04:32:44;;;;;;;4.93;4.20;;;15.80;99.90;;;;;;7363699;32;20161;-58
2022/09/13 04:36:46;;;;;;;7.75;4.53;;;15.80;99.90;;;;;;7363679;32;20460;-59
2022/09/13 04:40:53;;;;;;;7.37;5.00;;;15.80;99.90;;;;;;7362821;32;20123;-58
2022/09/13 04:44:54;;;;;;;8.98;4.72;;;15.80;99.90;;;;;;7370049;32;20126;-59
2022/09/13 04:48:56;;;;;;;8.60;4.28;;;15.80;99.90;;;;;;7364312;32;20155;-58
2022/09/13 04:52:58;;;;;;;5.82;4.22;;;15.80;99.90;;;;;;7362013;32;20877;-59
2022/09/13 04:56:59;;;;;;;5.70;4.15;;;15.80;99.90;;;;;;7367751;32;20676;-58
2022/09/13 05:01:07;;;;;;;6.28;4.32;;;15.80;99.90;;;;;;7365783;32;20106;-59
2022/09/13 05:05:09;;;;;;;;;;;15.80;99.90;;;;;;7366995;32;20186;-59
2022/09/13 05:09:14;;;;;;;7.05;4.78;;;15.70;99.90;;;;;;7360520;32;20025;-65
2022/09/13 05:13:16;;;;;;;7.25;4.43;;;15.70;99.90;;;;;;7361009;32;20232;-63
2022/09/13 05:17:19;;;;;;;5.57;4.40;;;15.70;99.90;;;;;;7359623;32;20516;-63
2022/09/13 05:21:21;;;;;;;7.90;4.62;;;15.70;99.90;;;;;;7363433;32;20100;-66
2022/09/13 05:25:22;;;;;;;7.40;4.78;;;15.80;99.90;;;;;;7361060;32;20151;-66
2022/09/13 05:29:26;;;;;;;8.73;4.80;;;15.80;99.90;;;;;;7357272;32;20103;-66
2022/09/13 05:33:31;;;;;;;24.48;21.73;;;15.80;99.90;;;;;;7367852;32;20849;-66
2022/09/13 05:37:32;;;;;;;12.23;9.63;;;15.70;99.90;;;;;;7361974;32;20125;-63
2022/09/13 05:41:34;;;;;;;7.70;5.40;;;15.80;99.90;;;;;;7357241;32;20103;-63
2022/09/13 05:45:36;;;;;;;4.78;4.12;;;15.80;99.90;;;;;;7363195;32;20126;-63
2022/09/13 05:49:38;;;;;;;5.35;4.57;;;15.80;99.90;;;;;;7361073;32;20135;-65
2022/09/13 05:53:59;;;;;;;9.90;5.12;;;15.80;99.90;;;;;;7363896;32;20190;-65
2022/09/13 05:58:02;;;;;;;6.35;4.68;;;15.90;99.90;;;;;;7364948;32;20625;-63
2022/09/13 06:02:03;;;;;;;8.35;4.65;;;16.00;99.90;;;;;;7357844;32;20237;-63
2022/09/13 06:06:06;;;;;;;5.03;4.07;;;16.00;99.90;;;;;;7364146;32;20796;-62
2022/09/13 06:10:10;;;;;;;5.85;4.15;;;16.10;99.90;;;;;;7361045;32;20125;-62
2022/09/13 06:14:11;;;;;;;5.05;4.00;;;16.20;99.90;;;;;;7356156;32;20294;-63
2022/09/13 06:18:13;;;;;;;4.78;3.85;;;16.30;99.90;;;;;;7363660;32;20133;-62
2022/09/13 06:22:15;;;;;;;5.72;4.05;;;16.40;99.90;;;;;;7359653;32;20104;-62
2022/09/13 06:26:19;;;;;;;5.05;4.00;;;16.50;99.90;;;;;;7362251;32;20099;-62
2022/09/13 06:30:20;;;;;;;6.70;4.30;;;16.60;99.90;;;;;;7369990;32;20104;-62
2022/09/13 06:34:22;;;;;;;6.03;3.97;;;16.70;99.90;;;;;;7370242;32;20101;-63
2022/09/13 06:38:29;;;;;;;;;;;16.70;99.90;;;;;;7365799;32;20201;-63
2022/09/13 06:42:34;;;;;;;6.47;4.05;;;16.80;99.90;;;;;;7367268;32;20665;-63
2022/09/13 06:46:35;;;;;;;8.93;4.18;;;17.00;99.90;;;;;;7359252;32;20210;-63
2022/09/13 06:50:37;;;;;;;4.62;3.72;;;17.10;99.90;;;;;;7362084;32;20147;-63
2022/09/13 06:54:39;;;;;;;6.00;4.12;;;17.20;99.90;;;;;;7361029;32;20103;-63
2022/09/13 06:58:43;;;;;;;6.55;4.28;;;17.30;99.90;;;;;;7372010;32;20108;-63
2022/09/13 07:02:50;;;;;;;4.87;4.32;;;17.40;99.90;;;;;;7365104;32;20125;-62
2022/09/13 07:06:51;;;;;;;5.50;3.75;;;17.40;99.90;;;;;;7367462;32;20281;-63
2022/09/13 07:10:56;;;;;;;4.28;3.78;;;17.60;99.90;;;;;;7365388;32;20115;-62
2022/09/13 07:14:58;;;;;;;8.45;3.58;;;17.70;99.90;;;;;;7361896;32;20546;-63
2022/09/13 07:19:04;;;;;;;9.90;3.65;;;17.80;99.90;;;;;;7373782;32;20216;-62
2022/09/13 07:23:06;;;;;;;7.47;3.42;;;17.90;99.90;;;;;;7366496;32;20099;-63
2022/09/13 07:27:07;;;;;;;5.35;3.40;;;18.00;99.90;;;;;;7367690;32;20712;-62
2022/09/13 07:31:19;;;;;;;7.70;3.67;;;18.10;99.90;;;;;;7361890;32;20111;-62
2022/09/13 07:35:21;;;;;;;4.25;3.30;;;18.10;99.90;;;;;;7363937;32;20428;-63
2022/09/13 07:39:23;;;;;;;6.03;3.50;;;18.20;99.90;;;;;;7362576;32;20125;-62
2022/09/13 07:43:25;;;;;;;7.62;3.40;;;18.30;99.90;;;;;;7362358;32;20138;-62
2022/09/13 07:47:27;;;;;;;4.68;3.10;;;18.40;99.90;;;;;;7363829;32;20120;-63
2022/09/13 07:51:31;;;;;;;5.37;3.70;;;18.50;99.90;;;;;;7361373;32;20129;-62
2022/09/13 07:55:33;;;;;;;6.35;3.40;;;18.70;99.90;;;;;;7362129;32;20237;-62
2022/09/13 07:59:34;;;;;;;6.93;3.60;;;18.80;99.90;;;;;;7359375;32;20182;-62
2022/09/13 08:03:36;;;;;;;5.82;2.95;;;18.90;99.90;;;;;;7369279;32;20103;-62
2022/09/13 08:07:38;;;;;;;4.97;3.22;;;19.20;99.90;;;;;;7358804;32;20100;-62
2022/09/13 08:11:41;;;;;;;4.72;3.35;;;19.30;99.90;;;;;;7360808;32;20208;-62
2022/09/13 08:15:43;;;;;;;4.20;2.70;;;19.40;99.90;;;;;;7366365;32;20111;-62
2022/09/13 08:19:45;;;;;;;8.85;3.30;;;19.50;99.90;;;;;;7363411;32;20768;-63
2022/09/13 08:23:47;;;;;;;4.70;3.28;;;19.50;99.90;;;;;;7359830;32;20122;-62
2022/09/13 08:27:49;;;;;;;5.68;3.70;;;19.60;99.90;;;;;;7364546;32;20221;-62
2022/09/13 08:31:51;;;;;;;6.78;3.42;;;19.80;99.90;;;;;;7361197;32;20379;-63
2022/09/13 08:35:54;;;;;;;6.32;3.53;;;20.00;99.90;;;;;;7366850;32;20103;-63
2022/09/13 08:39:56;;;;;;;5.10;3.40;;;20.10;99.90;;;;;;7360156;32;20126;-63
2022/09/13 08:44:07;;;;;;;5.75;3.78;;;20.20;99.90;;;;;;7358512;32;20107;-62
2022/09/13 08:48:15;;;;;;;6.60;3.60;;;20.30;99.90;;;;;;7361245;32;20148;-62
2022/09/13 08:52:49;;;;;;;5.18;3.35;;;20.40;99.90;;;;;;7367787;32;20118;-63
2022/09/13 08:56:57;;;;;;;6.80;3.78;;;20.50;99.90;;;;;;7365023;32;20102;-62
2022/09/13 09:01:11;;;;;;;5.07;3.50;;;20.50;99.90;;;;;;7361439;32;20165;-63
2022/09/13 09:05:19;;;;;;;7.43;4.12;;;20.70;99.90;;;;;;7363827;32;20133;-64
2022/09/13 09:09:21;;;;;;;9.27;4.47;;;20.90;99.90;;;;;;7369189;32;20134;-63
2022/09/13 09:13:31;;;;;;;13.90;5.22;;;21.10;99.90;;;;;;7367607;32;20186;-63
2022/09/13 09:18:01;;;;;;;9.20;4.35;;;21.40;99.90;;;;;;7364407;32;20587;-63
2022/09/13 09:22:06;;;;;;;10.18;4.30;;;21.60;99.90;;;;;;7365996;32;20129;-62
2022/09/13 09:26:22;;;;;;;8.13;5.03;;;21.90;99.90;;;;;;7370111;32;20091;-63
2022/09/13 09:30:40;;;;;;;9.93;5.93;;;22.00;99.90;;;;;;7362887;32;20237;-63
2022/09/13 09:34:51;;;;;;;;;;;22.30;99.90;;;;;;7364746;32;20107;-63
2022/09/13 09:38:53;;;;;;;8.70;5.68;;;22.60;99.90;;;;;;7362112;32;20058;-63
2022/09/13 09:42:55;;;;;;;13.57;5.87;;;23.00;99.90;;;;;;7360228;32;20123;-63
2022/09/13 09:47:06;;;;;;;12.50;5.37;;;23.40;99.90;;;;;;7366598;32;20126;-62
2022/09/13 09:51:10;;;;;;;10.82;5.70;;;23.80;99.90;;;;;;7361343;32;20121;-64
2022/09/13 09:55:33;;;;;;;9.93;6.00;;;24.70;99.90;;;;;;7358207;32;20107;-57
2022/09/13 09:59:35;;;;;;;11.12;6.40;;;25.40;99.90;;;;;;7361182;32;20512;-62
2022/09/13 10:03:39;;;;;;;8.73;5.53;;;25.40;99.90;;;;;;7369834;32;20107;-62
2022/09/13 10:07:40;;;;;;;9.02;5.03;;;25.50;99.90;;;;;;7364337;32;20205;-62
2022/09/13 10:11:53;;;;;;;10.18;5.20;;;25.40;99.90;;;;;;7372598;32;20193;-63
2022/09/13 10:16:01;;;;;;;8.90;5.68;;;25.10;99.90;;;;;;7378165;32;20511;-62
2022/09/13 10:20:12;;;;;;;7.97;5.62;;;24.90;99.90;;;;;;7369536;32;20129;-63
2022/09/13 10:24:16;;;;;;;11.07;5.20;;;25.10;99.90;;;;;;7368799;32;20134;-63
2022/09/13 10:28:18;;;;;;;7.97;4.93;;;25.60;99.90;;;;;;7368084;32;20134;-63
2022/09/13 10:32:21;;;;;;;8.18;5.15;;;26.00;99.90;;;;;;7365006;32;20190;-63
2022/09/13 10:36:28;;;;;;;11.90;5.05;;;26.20;99.90;;;;;;7366875;32;20130;-63
2022/09/13 10:40:50;;;;;;;;;;;26.20;99.90;;;;;;7364413;32;20212;-63
2022/09/13 10:45:01;;;;;;;5.30;4.12;;;26.30;99.90;;;;;;7386295;32;20018;-64
2022/09/13 10:49:02;;;;;;;7.65;4.30;;;26.10;99.90;;;;;;7373001;32;20099;-63
2022/09/13 10:53:35;;;;;;;8.07;4.97;;;25.70;99.90;;;;;;7377271;32;20539;-62
2022/09/13 10:57:37;;;;;;;5.93;2.97;;;25.60;99.90;;;;;;7370201;32;20106;-56
2022/09/13 11:01:51;;;;;;;5.32;2.50;;;25.40;99.90;;;;;;7370677;32;20111;-57
2022/09/13 11:06:14;;;;;;;5.87;2.50;;;25.20;99.90;;;;;;7366707;32;20456;-57
2022/09/13 11:10:38;;;;;;;9.25;2.25;;;25.30;99.90;;;;;;7365086;32;20102;-56
2022/09/13 11:15:12;;;;;;;3.97;1.52;;;25.20;99.90;;;;;;7368818;32;20205;-56
2022/09/13 11:19:20;;;;;;;4.72;2.37;;;25.10;99.90;;;;;;7379497;32;20100;-56
2022/09/13 11:23:43;;;;;;;6.10;2.90;;;25.10;99.90;;;;;;7364944;32;20134;-56
2022/09/13 11:27:54;;;;;;;4.62;2.67;;;24.80;99.90;;;;;;7361857;32;20136;-56
2022/09/13 11:32:13;;;;;;;6.53;3.03;;;24.70;99.90;;;;;;7357113;32;20516;-56
2022/09/13 11:36:20;;;;;;;5.55;3.20;;;24.50;99.90;;;;;;7361606;32;20127;-57
2022/09/13 11:40:53;;;;;;;5.57;2.70;;;24.30;99.90;;;;;;7364109;32;20206;-59
2022/09/13 11:45:17;;;;;;;5.80;2.55;;;24.50;99.90;;;;;;7358907;32;20193;-62
2022/09/13 11:49:47;;;;;;;4.62;2.47;;;24.60;99.90;;;;;;7367086;32;20180;-62
2022/09/13 11:54:01;;;;;;;10.17;2.77;;;24.80;99.90;;;;;;7366374;32;20111;-63
2022/09/13 11:58:09;;;;;;;4.97;2.80;;;25.00;99.90;;;;;;7363877;32;20147;-61
2022/09/13 12:02:33;;;;;;;8.32;3.70;;;25.00;99.90;;;;;;7357545;32;20178;-62
2022/09/13 12:06:46;;;;;;;4.97;2.90;;;24.80;99.90;;;;;;7362215;32;20526;-62
2022/09/13 12:10:58;;;;;;;5.40;3.10;;;24.90;99.90;;;;;;7361405;32;20095;-63
2022/09/13 12:15:04;;;;;;;6.00;3.50;;;24.80;99.90;;;;;;7360544;32;20178;-63
2022/09/13 12:19:33;;;;;;;6.68;3.60;;;25.00;99.90;;;;;;7360738;32;20546;-62
2022/09/13 12:23:42;;;;;;;6.25;3.10;;;25.20;99.90;;;;;;7361964;32;20222;-64
2022/09/13 12:28:05;;;;;;;7.07;2.92;;;25.20;99.90;;;;;;7361813;32;20107;-59
2022/09/13 12:32:09;;;;;;;5.68;2.92;;;25.60;99.90;;;;;;7367535;32;20709;-59
2022/09/13 12:36:31;;;;;;;6.40;3.37;;;25.70;99.90;;;;;;7360853;32;20592;-59
2022/09/13 12:40:51;;;;;;;5.10;3.20;;;25.80;99.90;;;;;;7358945;32;20103;-58
2022/09/13 12:45:27;;;;;;;6.53;3.05;;;25.70;99.90;;;;;;7361910;32;20107;-59
2022/09/13 12:49:37;;;;;;;4.50;2.87;;;26.00;99.90;;;;;;7358414;32;20149;-59
2022/09/13 12:54:02;;;;;;;7.85;3.40;;;26.10;99.90;;;;;;7359709;32;20149;-63
2022/09/13 12:58:04;;;;;;;7.65;3.50;;;25.90;99.90;;;;;;7362139;32;20470;-64
2022/09/13 13:02:23;;;;;;;4.57;3.10;;;26.00;99.90;;;;;;7363332;32;20098;-64
2022/09/13 13:06:36;;;;;;;3.03;2.70;;;25.90;99.90;;;;;;7365560;32;20107;-65
2022/09/13 13:10:38;;;;;;;5.12;2.42;;;26.10;99.90;;;;;;7359534;32;20117;-64
2022/09/13 13:14:40;;;;;;;4.22;2.67;;;26.20;99.90;;;;;;7372752;32;20095;-65
2022/09/13 13:18:47;;;;;;;5.10;2.97;;;26.20;99.90;;;;;;7361651;32;20194;-64
2022/09/13 13:22:50;;;;;;;4.62;2.97;;;26.40;99.90;;;;;;7361645;32;20835;-65
2022/09/13 13:26:53;;;;;;;6.85;2.90;;;26.50;99.90;;;;;;7366788;32;20095;-65
2022/09/13 13:30:56;;;;;;;5.07;2.83;;;26.60;99.90;;;;;;7359960;32;20099;-64
2022/09/13 13:35:27;;;;;;;4.93;2.50;;;26.40;99.90;;;;;;7375570;32;20159;-65
2022/09/13 13:39:28;;;;;;;5.82;2.83;;;26.40;99.90;;;;;;7362267;32;20230;-65
2022/09/13 13:43:32;;;;;;;5.50;3.70;;;26.40;99.90;;;;;;7366886;32;20492;-62
2022/09/13 13:47:34;;;;;;;7.53;2.67;;;26.30;99.90;;;;;;7363568;32;20218;-62
2022/09/13 13:51:35;;;;;;;4.97;2.60;;;26.20;99.90;;;;;;7379249;32;20776;-62
2022/09/13 13:56:23;;;;;;;5.53;2.60;;;26.20;99.90;;;;;;7362850;32;20115;-63
2022/09/13 14:00:32;;;;;;;4.93;1.83;;;25.90;99.90;;;;;;7366831;32;20103;-63
2022/09/13 14:04:47;;;;;;;3.17;2.10;;;25.90;99.90;;;;;;7363837;32;20198;-63
2022/09/13 14:09:05;;;;;;;5.03;2.00;;;25.30;99.90;;;;;;7363739;32;20182;-62
2022/09/13 14:13:21;;;;;;;5.70;1.50;;;25.10;99.90;;;;;;7370601;32;20108;-63
2022/09/13 14:17:44;;;;;;;5.72;2.08;;;24.80;99.90;;;;;;7363956;32;20641;-63
2022/09/13 14:22:03;;;;;;;5.53;2.28;;;24.80;99.90;;;;;;7365001;32;20181;-62
2022/09/13 14:26:05;;;;;;;4.90;3.00;;;24.90;99.90;;;;;;7369077;32;20099;-62
2022/09/13 14:30:27;;;;;;;6.70;2.72;;;24.90;99.90;;;;;;7367698;32;20709;-62
2022/09/13 14:34:31;;;;;;;3.50;2.10;;;24.70;99.90;;;;;;7371092;32;20546;-62
2022/09/13 14:38:35;;;;;;;6.68;3.00;;;24.60;99.90;;;;;;7367193;32;20205;-62
2022/09/13 14:42:43;;;;;;;7.95;3.22;;;24.60;99.90;;;;;;7366015;32;20676;-63
2022/09/13 14:46:50;;;;;;;3.72;2.25;;;24.40;99.90;;;;;;7354537;32;20197;-62
2022/09/13 14:50:58;;;;;;;5.78;2.50;;;24.40;99.90;;;;;;7352888;32;20206;-56
2022/09/13 14:55:04;;;;;;;8.45;2.22;;;24.30;99.90;;;;;;7363286;32;20182;-63
2022/09/13 14:59:15;;;;;;;5.90;2.90;;;24.20;99.90;;;;;;7357289;32;20099;-63
2022/09/13 15:03:18;;;;;;;5.53;2.85;;;24.20;99.90;;;;;;7359411;32;20240;-63
2022/09/13 15:07:27;;;;;;;6.15;2.62;;;24.30;99.90;;;;;;7359990;32;20115;-63
2022/09/13 15:11:32;;;;;;;5.05;2.70;;;24.30;99.90;;;;;;7356345;32;20580;-63
2022/09/13 15:15:39;;;;;;;4.80;3.00;;;24.20;99.90;;;;;;7360316;32;20614;-63
2022/09/13 15:19:47;;;;;;;6.30;2.42;;;24.20;99.90;;;;;;7365040;32;20186;-63
2022/09/13 15:23:50;;;;;;;3.97;2.60;;;24.10;99.90;;;;;;7359433;32;20174;-63
2022/09/13 15:27:53;;;;;;;4.78;3.05;;;23.90;99.90;;;;;;7358083;32;20190;-63
2022/09/13 15:31:58;;;;;;;5.87;3.30;;;24.00;99.90;;;;;;7359760;32;20560;-64
2022/09/13 15:36:27;;;;;;;4.68;2.95;;;23.80;99.90;;;;;;7366527;32;20099;-63
2022/09/13 15:40:39;;;;;;;6.07;3.00;;;23.70;99.90;;;;;;7362541;32;20110;-63
2022/09/13 15:44:41;;;;;;;6.97;3.05;;;23.50;99.90;;;;;;7367666;32;20146;-63
2022/09/13 15:48:50;;;;;;;7.53;3.25;;;23.40;99.90;;;;;;7369750;32;20166;-63
2022/09/13 15:52:54;;;;;;;10.60;3.37;;;23.50;99.90;;;;;;7374029;32;20732;-63
2022/09/13 15:56:57;;;;;;;4.07;2.72;;;23.30;99.90;;;;;;7362171;32;20131;-63
2022/09/13 16:00:59;;;;;;;13.62;10.82;;;23.30;99.90;;;;;;7373602;32;20483;-64
2022/09/13 16:05:01;;;;;;;7.35;3.87;;;23.10;99.90;;;;;;7365371;32;20241;-70
2022/09/13 16:09:23;;;;;;;7.75;2.90;;;23.00;99.90;;;;;;7370196;32;20585;-65
2022/09/13 16:13:25;;;;;;;6.15;3.58;;;23.00;99.90;;;;;;7369134;32;20130;-65
2022/09/13 16:17:27;;;;;;;5.57;2.80;;;23.00;99.90;;;;;;7372185;32;20111;-65
2022/09/13 16:21:28;;;;;;;9.00;4.62;;;23.00;99.90;;;;;;7380689;32;20537;-64
2022/09/13 16:25:30;;;;;;;8.38;3.90;;;23.00;99.90;;;;;;7371994;32;20125;-64
2022/09/13 16:29:32;;;;;;;5.15;3.47;;;22.90;99.90;;;;;;7360180;32;20170;-68
2022/09/13 16:33:34;;;;;;;21.27;15.02;;;22.80;99.90;;;;;;7362778;32;20681;-67
2022/09/13 16:37:36;;;;;;;8.93;4.57;;;22.80;99.90;;;;;;7361405;32;20615;-67
2022/09/13 16:41:39;;;;;;;10.55;6.65;;;22.80;99.90;;;;;;7371008;32;20120;-68
2022/09/13 16:45:41;;;;;;;8.70;6.10;;;22.60;99.90;;;;;;7348398;32;20602;-64
2022/09/13 16:49:43;;;;;;;11.32;6.05;;;22.60;99.90;;;;;;7368765;32;20216;-67
2022/09/13 16:53:45;;;;;;;8.65;5.82;;;22.50;99.90;;;;;;7356805;32;20197;-67
2022/09/13 16:57:49;;;;;;;8.73;4.55;;;22.50;99.90;;;;;;7360046;32;20190;-68
2022/09/13 17:01:51;;;;;;;6.70;4.32;;;22.40;99.90;;;;;;7356414;32;20496;-58
2022/09/13 17:05:58;;;;;;;20.62;7.65;;;22.30;99.90;;;;;;7351188;32;20115;-70
2022/09/13 17:09:59;;;;;;;27.30;8.15;;;22.20;99.90;;;;;;7353108;32;20137;-64
2022/09/13 17:14:04;;;;;;;21.15;7.90;;;22.10;99.90;;;;;;7362551;32;20174;-64
2022/09/13 17:18:06;;;;;;;9.48;4.35;;;22.00;99.90;;;;;;7359919;32;20167;-65
2022/09/13 17:22:10;;;;;;;14.18;5.28;;;21.80;99.90;;;;;;7365123;32;20126;-65
2022/09/13 17:26:11;;;;;;;14.10;5.10;;;21.70;99.90;;;;;;7369135;32;20202;-64
2022/09/13 17:30:13;;;;;;;4.00;3.20;;;21.70;99.90;;;;;;7368009;32;20122;-66
2022/09/13 17:34:15;;;;;;;6.25;3.40;;;21.50;99.90;;;;;;7376980;32;20091;-67
2022/09/13 17:38:16;;;;;;;4.35;2.97;;;21.50;99.90;;;;;;7361145;32;20212;-67
2022/09/13 17:42:18;;;;;;;5.53;3.05;;;21.30;99.90;;;;;;7361849;32;20092;-66
2022/09/13 17:46:27;;;;;;;5.28;3.35;;;21.20;99.90;;;;;;7371052;32;20108;-67
2022/09/13 17:50:29;;;;;;;6.12;3.60;;;21.10;99.90;;;;;;7360231;32;20522;-69
2022/09/13 17:54:31;;;;;;;10.77;3.60;;;21.00;99.90;;;;;;7366872;32;20425;-67
2022/09/13 17:58:33;;;;;;;7.35;3.85;;;20.90;99.90;;;;;;7356984;32;20100;-65
2022/09/13 18:02:35;;;;;;;13.77;9.27;;;20.80;99.90;;;;;;7365168;32;20092;-65
2022/09/13 18:06:41;;;;;;;9.75;4.10;;;20.70;99.90;;;;;;7365684;32;20094;-60
2022/09/13 18:10:43;;;;;;;5.32;3.55;;;20.60;99.90;;;;;;7364971;32;20111;-60
2022/09/13 18:15:05;;;;;;;5.10;3.92;;;20.50;99.90;;;;;;7359284;32;20103;-61
2022/09/13 18:19:08;;;;;;;5.00;3.80;;;20.50;99.90;;;;;;7364005;32;20107;-61
2022/09/13 18:23:10;;;;;;;7.55;3.78;;;20.40;99.90;;;;;;7361305;32;20445;-59
2022/09/13 18:27:12;;;;;;;13.02;4.00;;;20.30;99.90;;;;;;7364973;32;20643;-59
2022/09/13 18:31:16;;;;;;;8.55;3.37;;;20.30;99.90;;;;;;7357403;32;20107;-59
2022/09/13 18:35:17;;;;;;;7.35;4.12;;;20.20;99.90;;;;;;7371410;32;20104;-59
2022/09/13 18:39:21;;;;;;;9.57;4.18;;;20.10;99.90;;;;;;7371150;32;20099;-59
2022/09/13 18:43:23;;;;;;;7.07;4.05;;;20.10;99.90;;;;;;7367888;32;20133;-59
2022/09/13 18:47:24;;;;;;;6.93;4.00;;;20.00;99.90;;;;;;7366979;32;20471;-60
2022/09/13 18:51:44;;;;;;;8.57;3.58;;;20.00;99.90;;;;;;7368506;32;20749;-60
2022/09/13 18:55:46;;;;;;;10.55;4.50;;;20.00;99.90;;;;;;7366783;32;20099;-60
2022/09/13 18:59:48;;;;;;;9.48;4.22;;;19.90;99.90;;;;;;7366461;32;20125;-59
2022/09/13 19:03:52;;;;;;;10.88;4.28;;;19.80;99.90;;;;;;7367614;32;20107;-59
2022/09/13 19:07:55;;;;;;;10.40;4.75;;;19.80;99.90;;;;;;7365466;32;20169;-60
2022/09/13 19:11:56;;;;;;;8.90;7.53;;;19.80;99.90;;;;;;7366318;32;20471;-60
2022/09/13 19:15:59;;;;;;;11.65;9.45;;;19.70;99.90;;;;;;7366614;32;20107;-61
2022/09/13 19:20:02;;;;;;;8.60;4.40;;;19.70;99.90;;;;;;7368913;32;20179;-65
2022/09/13 19:24:04;;;;;;;10.15;5.37;;;19.60;99.90;;;;;;7368257;32;20154;-66
2022/09/13 19:28:13;;;;;;;8.40;4.95;;;19.50;99.90;;;;;;7363969;32;20188;-65
2022/09/13 19:32:14;;;;;;;11.05;6.95;;;19.40;99.90;;;;;;7363165;32;20095;-66
2022/09/13 19:36:22;;;;;;;7.90;5.00;;;19.40;99.90;;;;;;7366409;32;20095;-66
2022/09/13 19:40:24;;;;;;;14.05;5.65;;;19.30;99.90;;;;;;7369383;32;20122;-66
2022/09/13 19:44:26;;;;;;;15.65;6.15;;;19.30;99.90;;;;;;7369234;32;20099;-65
2022/09/13 19:48:30;;;;;;;11.20;5.80;;;19.30;99.90;;;;;;7362669;32;20130;-64
2022/09/13 19:52:40;;;;;;;8.70;5.87;;;19.30;99.90;;;;;;7366115;32;20126;-65
2022/09/13 19:56:42;;;;;;;14.50;5.87;;;19.20;99.90;;;;;;7365439;32;20185;-64
2022/09/13 20:00:44;;;;;;;7.80;6.53;;;19.20;99.90;;;;;;7357334;32;20218;-65
2022/09/13 20:04:47;;;;;;;9.07;6.37;;;19.20;99.90;;;;;;7360142;32;20111;-64
2022/09/13 20:08:49;;;;;;;10.50;8.35;;;19.20;99.90;;;;;;7361369;32;20185;-64
2022/09/13 20:12:53;;;;;;;8.38;7.45;;;19.10;99.90;;;;;;7363993;32;20111;-64
2022/09/13 20:16:55;;;;;;;10.48;7.12;;;19.10;99.90;;;;;;7363179;32;21228;-65
2022/09/13 20:21:05;;;;;;;11.23;8.10;;;19.10;99.90;;;;;;7355476;32;20186;-64
2022/09/13 20:25:07;;;;;;;11.50;8.43;;;19.00;99.90;;;;;;7356348;32;20114;-63
2022/09/13 20:29:09;;;;;;;11.35;10.20;;;19.10;99.90;;;;;;7355331;32;20099;-62
2022/09/13 20:33:11;;;;;;;15.88;9.15;;;19.00;99.90;;;;;;7353909;32;20613;-62
2022/09/13 20:37:13;;;;;;;12.80;9.10;;;19.00;99.90;;;;;;7351953;32;20191;-62
2022/09/13 20:41:15;;;;;;;12.50;9.32;;;18.90;99.90;;;;;;7350418;32;20146;-63
2022/09/13 20:45:17;;;;;;;14.02;10.50;;;18.90;99.90;;;;;;7352343;32;20241;-63
2022/09/13 20:49:19;;;;;;;12.30;10.98;;;19.00;99.90;;;;;;7348561;32;20197;-64
2022/09/13 20:53:20;;;;;;;12.55;10.60;;;18.90;99.90;;;;;;7351670;32;20201;-64
2022/09/13 20:57:23;;;;;;;15.25;12.40;;;18.90;99.90;;;;;;7362352;32;20102;-63
2022/09/13 21:01:27;;;;;;;11.75;9.77;;;18.90;99.90;;;;;;7357811;32;20130;-64
2022/09/13 21:05:28;;;;;;;10.45;9.30;;;18.80;99.90;;;;;;7358958;32;20111;-63
2022/09/13 21:09:31;;;;;;;9.77;7.45;;;18.70;99.90;;;;;;7360880;32;20198;-64
2022/09/13 21:13:35;;;;;;;12.10;7.03;;;18.70;99.90;;;;;;7359940;32;20119;-63
2022/09/13 21:17:37;;;;;;;8.57;7.45;;;18.60;99.90;;;;;;7355082;32;20455;-63
2022/09/13 21:21:40;;;;;;;10.25;7.30;;;18.50;99.90;;;;;;7358581;32;20134;-63
2022/09/13 21:25:42;;;;;;;8.40;6.80;;;18.40;99.90;;;;;;7364274;32;20190;-63